Terminal Aerodrome Forecast
Issued by NWS Amarillo, TX

Home | Current Version | Previous Version | Text Only | Print | Product List | Glossary On
Versions: 1 2 3 4 5 6 7 8 9 10 11 12 13 14 15 16
000
FTUS44 KAMA 231724
TAFGUY
TAF
KGUY 231724Z 2318/2418 19026G37KT P6SM FEW060
     FM240000 18019G29KT P6SM VCTS SCT050CB
      TEMPO 2401/2404 VRB30G48KT -TSRA
     FM240700 22023G33KT P6SM FEW300
     FM241500 31031G41KT P6SM SCT015 BKN030=

USA.gov is the U.S. government's official web portal to all federal, state and local government web resources and services.